createdAt,value
2019-01-15T00:01:41.588Z,12.33
2019-01-15T00:04:31.014Z,17.23
2019-01-15T00:07:46.629Z,19.97
2019-01-15T00:17:39.083Z,15.97
2019-01-15T00:20:24.427Z,16.90
2019-01-15T00:37:34.371Z,12.77
2019-01-15T00:50:54.036Z,17.10
2019-01-15T00:57:35.358Z,26.30
2019-01-15T01:01:00.976Z,29.00
2019-01-15T01:07:34.580Z,14.73
2019-01-15T01:10:21.698Z,19.97
2019-01-15T01:13:07.159Z,22.17
2019-01-15T01:15:53.020Z,15.67
2019-01-15T01:22:24.997Z,21.63
2019-01-15T01:28:32.562Z,19.70
2019-01-15T01:31:23.149Z,20.77
2019-01-15T01:34:34.899Z,14.63
2019-01-15T01:37:11.943Z,16.13
2019-01-15T01:39:57.231Z,17.77
2019-01-15T01:42:48.886Z,15.00
2019-01-15T01:46:03.099Z,18.53
2019-01-15T01:48:48.931Z,18.37
2019-01-15T01:51:51.726Z,21.93
2019-01-15T01:54:32.945Z,23.13
2019-01-15T01:58:39.778Z,21.80
2019-01-15T02:01:00.632Z,21.87
2019-01-15T02:16:24.625Z,26.57
2019-01-15T02:19:10.324Z,28.40
2019-01-15T02:25:06.237Z,24.40
2019-01-15T02:32:47.142Z,18.63
2019-01-15T02:38:34.465Z,17.70
2019-01-15T02:41:28.064Z,21.57
2019-01-15T02:51:09.976Z,25.70
2019-01-15T02:53:55.480Z,23.03
2019-01-15T02:56:44.622Z,15.53
2019-01-15T02:59:30.532Z,24.63
2019-01-15T03:03:16.133Z,22.37
2019-01-15T03:16:27.353Z,19.67
2019-01-15T03:19:15.577Z,16.40
2019-01-15T03:22:02.697Z,15.70
2019-01-15T03:24:58.289Z,20.03
2019-01-15T03:27:57.596Z,24.13
2019-01-15T03:34:15.792Z,30.70
2019-01-15T03:47:53.853Z,23.13
2019-01-15T03:50:41.406Z,23.67
2019-01-15T04:08:02.908Z,24.70
2019-01-15T04:09:09.542Z,20.43
2019-01-15T04:10:40.309Z,22.60
2019-01-15T04:13:30.099Z,22.47
2019-01-15T04:16:55.500Z,19.13
2019-01-15T04:20:16.733Z,19.27
2019-01-15T04:26:49.077Z,19.40
2019-01-15T04:29:47.108Z,21.40
2019-01-15T04:38:59.423Z,16.07
2019-01-15T04:45:50.149Z,21.27
2019-01-15T04:49:13.069Z,22.40
2019-01-15T05:02:18.272Z,19.13
2019-01-15T05:05:40.639Z,20.43
2019-01-15T05:08:37.258Z,24.00
2019-01-15T05:11:28.519Z,22.13
2019-01-15T05:14:40.473Z,21.90
2019-01-15T05:18:05.866Z,19.80
2019-01-15T05:20:58.527Z,19.63
2019-01-15T05:26:48.071Z,18.47
2019-01-15T05:29:33.693Z,16.50
2019-01-15T05:32:27.331Z,40.33
2019-01-15T05:35:44.944Z,27.13
2019-01-15T05:38:30.609Z,37.27
2019-01-15T05:41:22.110Z,21.93
2019-01-15T05:44:12.837Z,18.50
2019-01-15T05:47:01.602Z,22.37
2019-01-15T05:52:55.473Z,30.50
2019-01-15T05:55:50.746Z,31.93
2019-01-15T05:58:39.876Z,25.70
2019-01-15T06:01:29.189Z,26.53
2019-01-15T06:04:36.414Z,23.87
2019-01-15T06:10:36.799Z,21.40
2019-01-15T06:13:21.975Z,15.17
2019-01-15T06:19:41.414Z,27.83
2019-01-15T06:23:19.591Z,23.55
2019-01-15T06:29:41.841Z,17.03
2019-01-15T06:33:24.851Z,30.87
2019-01-15T06:39:32.826Z,19.33
2019-01-15T06:43:18.670Z,21.40
2019-01-15T06:46:45.832Z,18.67
2019-01-15T06:49:34.231Z,18.30
2019-01-15T06:56:06.989Z,27.40
2019-01-15T07:06:29.757Z,22.50
2019-01-15T07:09:23.790Z,22.70
2019-01-15T07:12:09.757Z,26.83
2019-01-15T07:32:15.313Z,21.83
2019-01-15T07:39:17.873Z,21.93
2019-01-15T07:46:31.099Z,20.57
2019-01-15T07:48:40.563Z,21.33
2019-01-15T07:51:31.894Z,16.40
2019-01-15T07:54:19.481Z,32.43
2019-01-15T07:57:04.914Z,27.07
2019-01-15T07:59:56.664Z,22.13
2019-01-15T08:02:44.673Z,25.03
2019-01-15T08:05:33.595Z,26.87
2019-01-15T08:08:18.694Z,24.00
2019-01-15T08:11:10.089Z,19.43
2019-01-15T08:13:56.643Z,25.30
2019-01-15T08:16:50.225Z,24.07
2019-01-15T08:19:36.015Z,32.63
2019-01-15T08:22:23.349Z,30.93
2019-01-15T08:25:14.150Z,21.47
2019-01-15T08:28:13.754Z,15.20
2019-01-15T08:31:00.339Z,25.87
2019-01-15T08:33:46.154Z,32.03
2019-01-15T08:36:33.031Z,25.70
2019-01-15T08:39:56.868Z,24.23
2019-01-15T08:42:41.633Z,31.90
2019-01-15T08:45:26.929Z,25.17
2019-01-15T08:48:14.327Z,48.30
2019-01-15T08:50:59.558Z,30.83
2019-01-15T08:53:45.645Z,44.00
2019-01-15T08:56:30.566Z,34.53
2019-01-15T08:59:15.730Z,31.97
2019-01-15T09:02:01.144Z,33.17
2019-01-15T09:04:46.053Z,45.53
2019-01-15T09:07:31.407Z,47.90
2019-01-15T09:10:17.417Z,38.23
2019-01-15T09:13:02.473Z,28.33
2019-01-15T09:15:47.773Z,27.13
2019-01-15T09:18:33.220Z,42.13
2019-01-15T09:21:18.249Z,30.40
2019-01-15T09:24:02.943Z,47.03
2019-01-15T09:26:47.772Z,25.43
2019-01-15T09:29:33.041Z,33.67
2019-01-15T09:32:18.172Z,30.13
2019-01-15T09:35:03.468Z,22.63
2019-01-15T09:37:49.794Z,29.97
2019-01-15T09:40:35.442Z,22.10
2019-01-15T09:43:20.406Z,33.20
2019-01-15T09:46:05.186Z,33.33
2019-01-15T09:48:50.351Z,28.77
2019-01-15T09:51:35.614Z,35.37
2019-01-15T09:54:20.938Z,31.03
2019-01-15T09:57:06.156Z,28.67
2019-01-15T09:59:51.322Z,29.50
2019-01-15T10:02:36.604Z,26.07
2019-01-15T10:05:21.580Z,23.27
2019-01-15T10:08:06.667Z,26.70
2019-01-15T10:10:51.398Z,30.23
2019-01-15T10:13:36.735Z,37.17
2019-01-15T10:16:21.893Z,26.67
2019-01-15T10:19:07.350Z,37.57
2019-01-15T10:21:52.459Z,28.03
2019-01-15T10:24:38.367Z,21.57
2019-01-15T10:27:23.464Z,25.83
2019-01-15T10:30:29.727Z,34.30
2019-01-15T10:33:21.632Z,22.00
2019-01-15T10:36:45.637Z,25.70
2019-01-15T10:39:30.996Z,26.97
2019-01-15T10:42:16.584Z,30.80
2019-01-15T10:45:01.612Z,26.37
2019-01-15T10:47:46.807Z,31.97
2019-01-15T10:50:31.488Z,21.27
2019-01-15T10:53:16.700Z,23.90
2019-01-15T10:56:01.420Z,26.43
2019-01-15T10:58:46.633Z,19.93
2019-01-15T11:01:31.534Z,19.17
2019-01-15T11:04:16.863Z,21.33
2019-01-15T11:07:02.083Z,17.17
2019-01-15T11:09:47.331Z,17.63
2019-01-15T11:12:32.643Z,13.27
2019-01-15T11:15:17.738Z,15.30
2019-01-15T11:18:02.423Z,15.93
2019-01-15T11:20:48.029Z,15.93
2019-01-15T11:23:33.072Z,16.07
2019-01-15T11:26:18.411Z,17.93
2019-01-15T11:29:03.116Z,20.23
2019-01-15T11:31:48.348Z,18.50
2019-01-15T11:34:33.674Z,20.10
2019-01-15T11:37:18.754Z,22.97
2019-01-15T11:40:08.618Z,22.33
2019-01-15T11:42:53.834Z,16.17
2019-01-15T11:45:39.092Z,23.13
2019-01-15T11:48:24.411Z,15.10
2019-01-15T11:51:09.208Z,15.57
2019-01-15T11:53:54.500Z,18.17
2019-01-15T11:56:39.360Z,16.07
2019-01-15T11:59:25.202Z,19.63
2019-01-15T12:02:12.042Z,15.23
2019-01-15T12:05:04.670Z,15.73
2019-01-15T12:08:00.714Z,18.33
2019-01-15T12:10:53.447Z,23.77
2019-01-15T12:13:57.181Z,18.67
2019-01-15T12:16:59.120Z,18.57
2019-01-15T12:20:02.875Z,17.23
2019-01-15T12:22:55.866Z,18.37
2019-01-15T12:25:43.115Z,15.73
2019-01-15T12:28:29.807Z,15.37
2019-01-15T12:31:23.255Z,15.53
2019-01-15T12:34:28.123Z,15.00
2019-01-15T12:37:21.225Z,16.13
2019-01-15T12:40:13.216Z,15.57
2019-01-15T12:43:06.170Z,21.03
2019-01-15T12:45:55.858Z,16.33
2019-01-15T12:48:51.882Z,21.33
2019-01-15T12:51:50.638Z,17.73
2019-01-15T12:54:52.345Z,17.80
2019-01-15T12:57:39.338Z,17.30
2019-01-15T13:00:37.987Z,18.87
2019-01-15T13:03:25.067Z,20.23
2019-01-15T13:06:28.357Z,19.50
2019-01-15T13:09:32.031Z,20.47
2019-01-15T13:12:28.181Z,15.77
2019-01-15T13:15:29.400Z,15.83
2019-01-15T13:18:21.569Z,18.33
2019-01-15T13:21:11.808Z,23.53
2019-01-15T13:23:58.601Z,26.27
2019-01-15T13:26:57.589Z,15.33
2019-01-15T13:30:01.459Z,15.33
2019-01-15T13:32:48.453Z,22.00
2019-01-15T13:35:35.163Z,22.37
2019-01-15T13:38:33.857Z,22.50
2019-01-15T13:41:20.898Z,17.23
2019-01-15T13:44:10.599Z,16.90
2019-01-15T13:47:06.162Z,15.03
2019-01-15T13:50:02.002Z,20.57
2019-01-15T13:53:05.421Z,17.33
2019-01-15T13:55:58.176Z,18.30
2019-01-15T13:59:02.025Z,19.47
2019-01-15T14:01:49.130Z,16.83
2019-01-15T14:04:38.659Z,17.63
2019-01-15T14:07:43.606Z,17.63
2019-01-15T14:10:30.751Z,15.83
2019-01-15T14:13:29.465Z,15.73
2019-01-15T14:16:28.391Z,18.60
2019-01-15T14:19:31.785Z,19.93
2019-01-15T14:22:35.463Z,15.97
2019-01-15T14:25:37.592Z,29.90
2019-01-15T14:28:25.071Z,25.27
2019-01-15T14:31:14.813Z,26.47
2019-01-15T14:34:18.416Z,37.90
2019-01-15T14:37:08.076Z,42.27
2019-01-15T14:40:02.511Z,52.00
2019-01-15T14:42:58.382Z,39.70
2019-01-15T14:45:48.320Z,30.87
2019-01-15T14:48:51.727Z,34.17
2019-01-15T14:51:55.547Z,34.10
2019-01-15T14:54:42.684Z,38.63
2019-01-15T14:57:44.920Z,50.80
2019-01-15T15:00:40.736Z,45.80
2019-01-15T15:03:28.378Z,41.77
2019-01-15T15:06:15.080Z,44.03
2019-01-15T15:09:10.963Z,41.67
2019-01-15T15:11:58.017Z,54.17
2019-01-15T15:14:53.847Z,46.60
2019-01-15T15:17:40.829Z,39.97
2019-01-15T15:20:30.483Z,29.00
2019-01-15T15:23:20.398Z,30.73
2019-01-15T15:26:24.681Z,26.70
2019-01-15T15:29:30.135Z,41.53
2019-01-15T15:32:17.271Z,43.80
2019-01-15T15:35:08.368Z,71.60
2019-01-15T15:38:10.464Z,35.43
2019-01-15T15:40:58.790Z,26.70
2019-01-15T15:43:45.384Z,33.77
2019-01-15T15:46:41.133Z,24.87
2019-01-15T15:49:28.287Z,39.10
2019-01-15T15:52:15.074Z,40.70
2019-01-15T15:55:19.156Z,32.50
2019-01-15T15:58:08.810Z,43.73
2019-01-15T16:01:01.600Z,41.70
2019-01-15T16:04:00.424Z,31.03
2019-01-15T16:06:53.651Z,32.60
2019-01-15T16:09:52.295Z,35.00
2019-01-15T16:12:56.027Z,35.47
2019-01-15T16:15:51.883Z,38.37
2019-01-15T16:18:39.044Z,40.90
2019-01-15T16:21:34.624Z,43.77
2019-01-15T16:24:21.715Z,44.37
2019-01-15T16:27:20.860Z,41.13
2019-01-15T16:30:14.731Z,41.50
2019-01-15T16:33:18.061Z,41.83
2019-01-15T16:36:23.732Z,34.23
2019-01-15T16:39:11.025Z,30.27
2019-01-15T16:42:03.771Z,30.90
2019-01-15T16:44:50.428Z,28.63
2019-01-15T16:47:37.522Z,29.17
2019-01-15T16:50:33.049Z,27.83
2019-01-15T16:53:20.162Z,30.80
2019-01-15T16:56:23.608Z,37.80
2019-01-15T16:59:10.619Z,27.07
2019-01-15T17:02:03.135Z,29.70
2019-01-15T17:05:07.042Z,26.63
2019-01-15T17:07:54.035Z,27.03
2019-01-15T17:10:40.930Z,28.17
2019-01-15T17:13:27.789Z,21.33
2019-01-15T17:16:17.789Z,24.90
2019-01-15T17:19:04.763Z,22.67
2019-01-15T17:21:57.642Z,19.67
2019-01-15T17:24:47.572Z,25.03
2019-01-15T17:28:01.249Z,21.67
2019-01-15T17:30:48.288Z,22.90
2019-01-15T17:33:51.977Z,21.60
2019-01-15T17:36:45.284Z,22.77
2019-01-15T17:39:38.082Z,25.07
2019-01-15T17:42:33.918Z,22.07
2019-01-15T17:45:37.510Z,25.50
2019-01-15T17:48:24.555Z,24.10
2019-01-15T17:51:11.826Z,29.30
2019-01-15T17:53:58.668Z,29.03
2019-01-15T17:56:51.232Z,31.73
2019-01-15T17:59:38.298Z,27.80
2019-01-15T18:02:41.614Z,25.73
2019-01-15T18:05:46.810Z,33.53
2019-01-15T18:08:36.540Z,41.70
2019-01-15T18:11:23.593Z,37.63
2019-01-15T18:14:13.334Z,41.97
2019-01-15T18:17:02.981Z,60.67
2019-01-15T18:20:08.227Z,53.63
2019-01-15T18:23:01.730Z,48.87
2019-01-15T18:26:05.291Z,31.30
2019-01-15T18:29:09.535Z,47.70
2019-01-15T18:32:08.045Z,44.07
2019-01-15T18:34:57.851Z,48.13
2019-01-15T18:37:47.640Z,54.97
2019-01-15T18:40:40.442Z,70.30
2019-01-15T18:43:42.910Z,48.40
2019-01-15T18:46:29.817Z,50.73
2019-01-15T18:49:19.518Z,56.37
2019-01-15T18:52:23.032Z,68.73
2019-01-15T18:55:24.994Z,60.30
2019-01-15T18:58:20.906Z,48.43
2019-01-15T19:01:13.664Z,44.03
2019-01-15T19:04:12.410Z,37.43
2019-01-15T19:06:59.880Z,35.67
2019-01-15T19:09:49.497Z,33.83
2019-01-15T19:12:36.689Z,36.17
2019-01-15T19:15:35.653Z,38.30
2019-01-15T19:18:40.750Z,36.00
2019-01-15T19:21:27.714Z,35.63
2019-01-15T19:24:17.201Z,32.13
2019-01-15T19:27:20.655Z,31.30
2019-01-15T19:30:19.813Z,29.37
2019-01-15T19:33:06.820Z,26.40
2019-01-15T19:35:59.444Z,27.17
2019-01-15T19:38:46.449Z,28.33
2019-01-15T19:41:49.710Z,27.10
2019-01-15T19:44:48.625Z,31.53
2019-01-15T19:47:44.638Z,32.20
2019-01-15T19:50:37.974Z,26.00
2019-01-15T19:53:36.666Z,23.67
2019-01-15T19:56:23.561Z,31.27
2019-01-15T19:59:13.974Z,22.63
2019-01-15T20:02:06.913Z,42.63
2019-01-15T20:04:54.020Z,14.93
2019-01-15T20:08:00.236Z,29.07
2019-01-15T20:10:53.578Z,17.37
2019-01-15T20:13:40.640Z,27.10
2019-01-15T20:16:44.122Z,14.03
2019-01-15T20:19:47.607Z,14.83
2019-01-15T20:22:47.741Z,14.83
2019-01-15T20:25:51.355Z,17.43
2019-01-15T20:28:54.764Z,16.43
2019-01-15T20:31:44.960Z,18.97
2019-01-15T20:34:31.656Z,13.67
2019-01-15T20:37:30.764Z,20.70
2019-01-15T20:40:17.658Z,21.33
2019-01-15T20:43:07.364Z,19.90
2019-01-15T20:46:12.556Z,23.20
2019-01-15T20:48:59.508Z,21.43
2019-01-15T20:51:46.426Z,21.20
2019-01-15T20:54:36.346Z,19.57
2019-01-15T20:57:32.518Z,24.37
2019-01-15T21:00:24.083Z,30.93
2019-01-15T21:03:17.442Z,22.03
2019-01-15T21:06:04.602Z,23.07
2019-01-15T21:08:54.319Z,32.77
2019-01-15T21:11:50.333Z,20.10
2019-01-15T21:14:46.284Z,29.70
2019-01-15T21:17:33.323Z,25.90
2019-01-15T21:20:20.175Z,18.43
2019-01-15T21:23:12.544Z,20.90
2019-01-15T21:25:59.768Z,22.30
2019-01-15T21:28:49.563Z,25.43
2019-01-15T21:31:45.705Z,26.93
2019-01-15T21:34:49.091Z,31.77
2019-01-15T21:37:36.784Z,19.13
2019-01-15T21:40:29.857Z,21.00
2019-01-15T21:43:19.663Z,59.20
2019-01-15T21:46:23.156Z,20.93
2019-01-15T21:49:22.186Z,26.27
2019-01-15T21:52:15.444Z,20.87
2019-01-15T21:55:05.857Z,27.87
2019-01-15T21:57:52.917Z,28.30
2019-01-15T22:00:56.528Z,28.87
2019-01-15T22:03:49.347Z,23.13
2019-01-15T22:06:53.134Z,26.60
2019-01-15T22:09:48.757Z,19.07
2019-01-15T22:12:41.558Z,19.90
2019-01-15T22:15:45.334Z,25.77
2019-01-15T22:18:48.770Z,22.77
2019-01-15T22:21:35.890Z,22.97
2019-01-15T22:24:34.738Z,22.90
2019-01-15T22:27:36.996Z,19.43
2019-01-15T22:30:42.159Z,29.03
2019-01-15T22:33:29.517Z,26.70
2019-01-15T22:36:16.690Z,22.67
2019-01-15T22:39:20.270Z,23.57
2019-01-15T22:42:19.900Z,24.70
2019-01-15T22:45:12.528Z,25.20
2019-01-15T22:47:59.473Z,22.13
2019-01-15T22:50:46.526Z,25.37
2019-01-15T22:53:45.547Z,27.40
2019-01-15T22:56:41.395Z,27.57
2019-01-15T22:59:46.687Z,28.43
2019-01-15T23:02:42.687Z,24.43
2019-01-15T23:05:32.684Z,21.97
2019-01-15T23:08:28.694Z,22.17
2019-01-15T23:11:15.315Z,25.30
2019-01-15T23:14:08.089Z,22.40
2019-01-15T23:16:57.902Z,20.93
2019-01-15T23:20:01.623Z,22.93
2019-01-15T23:23:00.818Z,26.13
2019-01-15T23:25:47.985Z,28.60
2019-01-15T23:28:35.387Z,26.10
2019-01-15T23:31:28.069Z,29.83
2019-01-15T23:34:17.677Z,24.87
2019-01-15T23:37:13.543Z,38.07
2019-01-15T23:40:01.487Z,28.27
2019-01-15T23:42:57.499Z,24.83
2019-01-15T23:45:44.482Z,31.23
2019-01-15T23:48:40.011Z,26.43
2019-01-15T23:51:33.542Z,22.73
2019-01-15T23:54:23.291Z,28.23
2019-01-15T23:57:28.380Z,23.90
